createdAt,value
2022-09-05T00:02:06.487Z,17.50
2022-09-05T00:04:24.100Z,17.40
2022-09-05T00:06:32.814Z,17.40
2022-09-05T00:09:06.511Z,17.40
2022-09-05T00:11:42.505Z,17.30
2022-09-05T00:14:05.402Z,17.40
2022-09-05T00:16:07.167Z,17.50
2022-09-05T00:22:52.682Z,17.50
2022-09-05T00:24:21.664Z,17.50
2022-09-05T00:24:35.421Z,17.40
2022-09-05T00:26:32.732Z,17.40
2022-09-05T00:28:37.689Z,17.30
2022-09-05T00:31:07.532Z,17.30
2022-09-05T00:33:27.419Z,17.30
2022-09-05T00:35:43.718Z,17.30
2022-09-05T00:37:49.116Z,17.30
2022-09-05T00:40:03.945Z,17.20
2022-09-05T00:42:18.370Z,17.20
2022-09-05T00:44:23.926Z,17.10
2022-09-05T00:46:34.476Z,17.20
2022-09-05T00:48:44.922Z,17.10
2022-09-05T00:50:52.659Z,17.20
2022-09-05T00:53:07.612Z,17.20
2022-09-05T00:55:27.387Z,17.20
2022-09-05T00:58:06.301Z,17.20
2022-09-05T01:00:17.351Z,17.20
2022-09-05T01:02:48.461Z,17.30
2022-09-05T01:04:59.862Z,17.20
2022-09-05T01:07:20.563Z,17.30
2022-09-05T01:09:43.876Z,17.40
2022-09-05T01:12:17.074Z,17.30
2022-09-05T01:14:40.373Z,17.30
2022-09-05T01:16:42.059Z,17.20
2022-09-05T01:19:09.821Z,17.30
2022-09-05T01:21:29.841Z,17.30
2022-09-05T01:23:49.807Z,17.20
2022-09-05T01:26:37.123Z,17.10
2022-09-05T01:28:44.636Z,17.10
2022-09-05T01:31:28.152Z,17.10
2022-09-05T01:33:55.900Z,17.10
2022-09-05T01:36:23.304Z,17.10
2022-09-05T01:40:11.850Z,17.10
2022-09-05T01:41:34.102Z,17.10
2022-09-05T01:43:50.991Z,17.10
2022-09-05T01:46:03.372Z,16.90
2022-09-05T01:48:26.785Z,16.80
2022-09-05T01:50:48.185Z,16.70
2022-09-05T01:53:25.841Z,16.70
2022-09-05T01:56:06.399Z,16.70
2022-09-05T01:58:31.984Z,16.60
2022-09-05T02:00:35.162Z,16.70
2022-09-05T02:02:50.179Z,16.70
2022-09-05T02:05:01.527Z,16.80
2022-09-05T02:07:30.806Z,16.80
2022-09-05T02:09:40.373Z,16.70
2022-09-05T02:12:02.382Z,16.80
2022-09-05T02:14:34.179Z,16.80
2022-09-05T02:16:44.314Z,16.90
2022-09-05T02:18:52.409Z,16.90
2022-09-05T02:21:00.607Z,16.90
2022-09-05T02:23:27.341Z,16.90
2022-09-05T02:26:02.302Z,17.00
2022-09-05T02:28:13.442Z,16.90
2022-09-05T02:30:23.169Z,16.80
2022-09-05T02:32:43.288Z,16.80
2022-09-05T02:35:07.173Z,16.80
2022-09-05T02:37:22.854Z,16.80
2022-09-05T02:45:03.838Z,16.80
2022-09-05T02:45:11.901Z,16.80
2022-09-05T02:45:35.863Z,16.80
2022-09-05T02:48:15.603Z,16.70
2022-09-05T02:57:27.403Z,16.70
2022-09-05T02:57:28.165Z,16.70
2022-09-05T02:57:42.483Z,16.80
2022-09-05T02:59:10.024Z,16.80
2022-09-05T03:01:23.989Z,16.70
2022-09-05T03:03:39.998Z,16.70
2022-09-05T03:06:10.597Z,16.70
2022-09-05T03:08:19.039Z,16.70
2022-09-05T03:10:29.545Z,16.60
2022-09-05T03:13:07.549Z,16.60
2022-09-05T03:15:53.927Z,16.60
2022-09-05T03:17:55.596Z,16.70
2022-09-05T03:20:42.323Z,16.60
2022-09-05T03:23:36.202Z,16.60
2022-09-05T03:25:56.576Z,16.50
2022-09-05T03:28:35.901Z,16.50
2022-09-05T03:31:05.211Z,16.50
2022-09-05T03:33:25.698Z,16.50
2022-09-05T03:35:45.885Z,16.50
2022-09-05T03:38:20.443Z,16.50
2022-09-05T03:40:43.955Z,16.50
2022-09-05T03:43:10.226Z,16.40
2022-09-05T03:45:37.024Z,16.40
2022-09-05T03:47:48.159Z,16.40
2022-09-05T03:56:51.543Z,16.40
2022-09-05T03:57:15.205Z,16.50
2022-09-05T03:57:23.305Z,16.50
2022-09-05T03:58:57.088Z,16.60
2022-09-05T04:01:11.089Z,16.60
2022-09-05T04:08:05.953Z,16.60
2022-09-05T04:08:17.421Z,16.60
2022-09-05T04:08:48.851Z,16.50
2022-09-05T04:10:57.401Z,16.50
2022-09-05T04:13:02.556Z,16.50
2022-09-05T04:15:27.433Z,16.40
2022-09-05T04:17:50.064Z,16.40
2022-09-05T04:20:12.532Z,16.30
2022-09-05T04:22:20.111Z,16.20
2022-09-05T04:24:37.091Z,16.30
2022-09-05T04:27:07.589Z,16.30
2022-09-05T04:29:17.196Z,16.30
2022-09-05T04:31:48.362Z,16.30
2022-09-05T04:34:00.330Z,16.30
2022-09-05T04:36:17.900Z,16.30
2022-09-05T04:38:41.322Z,16.40
2022-09-05T04:41:04.558Z,16.40
2022-09-05T04:43:45.030Z,16.50
2022-09-05T04:46:19.116Z,16.50
2022-09-05T04:48:27.755Z,16.50
2022-09-05T04:50:38.084Z,16.50
2022-09-05T04:52:40.040Z,16.50
2022-09-05T04:55:00.369Z,16.60
2022-09-05T04:57:13.629Z,16.60
2022-09-05T05:02:41.883Z,16.70
2022-09-05T05:06:01.308Z,16.80
2022-09-05T05:06:12.586Z,16.90
2022-09-05T05:07:28.114Z,16.90
2022-09-05T05:09:46.734Z,16.90
2022-09-05T05:17:55.286Z,16.90
2022-09-05T05:18:08.469Z,17.10
2022-09-05T05:18:11.321Z,17.00
2022-09-05T05:20:41.600Z,17.20
2022-09-05T05:22:48.713Z,17.20
2022-09-05T05:24:56.301Z,17.30
2022-09-05T05:27:10.852Z,17.40
2022-09-05T05:29:36.706Z,17.40
2022-09-05T05:31:46.284Z,17.50
2022-09-05T05:33:54.015Z,17.50
2022-09-05T05:35:59.927Z,17.60
2022-09-05T05:38:17.397Z,17.50
2022-09-05T05:40:22.898Z,17.50
2022-09-05T05:42:24.710Z,17.50
2022-09-05T05:44:35.943Z,17.60
2022-09-05T05:46:41.718Z,17.60
2022-09-05T05:48:45.676Z,17.60
2022-09-05T05:51:39.688Z,17.70
2022-09-05T05:54:23.032Z,17.80
2022-09-05T05:56:38.417Z,17.90
2022-09-05T05:58:49.534Z,18.00
2022-09-05T06:00:54.153Z,18.00
2022-09-05T06:03:24.772Z,18.10
2022-09-05T06:05:26.538Z,18.20
2022-09-05T06:08:27.549Z,18.30
2022-09-05T06:14:52.868Z,18.40
2022-09-05T06:15:03.764Z,18.50
2022-09-05T06:15:40.126Z,18.60
2022-09-05T06:18:07.208Z,18.80
2022-09-05T06:22:07.351Z,18.90
2022-09-05T06:23:36.651Z,19.10
2022-09-05T06:26:18.769Z,19.30
2022-09-05T06:28:27.424Z,19.40
2022-09-05T06:31:22.576Z,19.60
2022-09-05T06:33:52.292Z,19.70
2022-09-05T06:36:07.205Z,20.30
2022-09-05T06:38:27.893Z,21.30
2022-09-05T06:40:36.672Z,22.10
2022-09-05T06:42:42.827Z,22.60
2022-09-05T06:45:00.291Z,22.90
2022-09-05T06:47:33.322Z,23.50
2022-09-05T06:50:05.676Z,24.30
2022-09-05T06:52:30.567Z,25.10
2022-09-05T06:55:03.961Z,26.10
2022-09-05T06:57:11.512Z,26.80
2022-09-05T06:59:37.960Z,27.30
2022-09-05T07:02:00.554Z,27.50
2022-09-05T07:05:14.882Z,27.70
2022-09-05T07:07:08.254Z,27.90
2022-09-05T07:09:28.618Z,28.40
2022-09-05T07:11:30.768Z,28.70
2022-09-05T07:14:05.004Z,29.30
2022-09-05T07:16:31.496Z,29.30
2022-09-05T07:19:28.386Z,29.60
2022-09-05T07:21:48.114Z,29.60
2022-09-05T07:24:11.068Z,29.50
2022-09-05T07:26:13.288Z,29.00
2022-09-05T07:28:36.891Z,28.20
2022-09-05T07:30:48.102Z,27.80
2022-09-05T07:32:53.945Z,27.90
2022-09-05T07:34:58.365Z,27.80
2022-09-05T07:37:35.770Z,28.10
2022-09-05T07:40:25.229Z,28.30
2022-09-05T07:43:10.063Z,29.10
2022-09-05T07:45:16.999Z,29.90
2022-09-05T07:47:26.274Z,30.50
2022-09-05T07:49:32.450Z,30.90
2022-09-05T07:56:49.778Z,31.30
2022-09-05T07:56:54.862Z,31.30
2022-09-05T07:57:22.343Z,31.70
2022-09-05T07:59:15.569Z,31.80
2022-09-05T08:01:20.123Z,32.50
2022-09-05T08:03:29.688Z,32.90
2022-09-05T08:05:43.485Z,33.10
2022-09-05T08:07:52.805Z,33.30
2022-09-05T08:10:15.603Z,33.10
2022-09-05T08:12:23.509Z,33.10
2022-09-05T08:15:01.441Z,33.10
2022-09-05T08:17:14.117Z,33.60
2022-09-05T08:19:37.018Z,33.40
2022-09-05T08:21:46.508Z,33.70
2022-09-05T08:24:13.716Z,33.40
2022-09-05T08:26:46.901Z,33.50
2022-09-05T08:29:04.111Z,33.30
2022-09-05T08:31:12.448Z,33.00
2022-09-05T08:33:22.483Z,32.90
2022-09-05T08:35:37.876Z,33.00
2022-09-05T08:37:43.023Z,33.10
2022-09-05T08:39:47.479Z,33.60
2022-09-05T08:42:05.570Z,33.60
2022-09-05T08:46:44.682Z,33.40
2022-09-05T08:46:51.909Z,33.80
2022-09-05T08:49:37.003Z,33.50
2022-09-05T08:51:53.915Z,33.10
2022-09-05T08:54:12.042Z,33.40
2022-09-05T08:56:21.092Z,33.10
2022-09-05T08:58:55.373Z,33.60
2022-09-05T09:02:11.607Z,33.10
2022-09-05T09:04:11.455Z,33.10
2022-09-05T09:06:20.714Z,33.30
2022-09-05T09:08:42.500Z,33.60
2022-09-05T09:11:02.353Z,33.40
2022-09-05T09:13:16.111Z,33.00
2022-09-05T09:15:24.911Z,33.10
2022-09-05T09:17:40.553Z,33.10
2022-09-05T09:20:03.698Z,33.20
2022-09-05T09:22:27.221Z,33.10
2022-09-05T09:24:41.092Z,33.30
2022-09-05T09:26:57.138Z,33.40
2022-09-05T09:29:08.150Z,33.00
2022-09-05T09:31:37.377Z,33.40
2022-09-05T09:34:07.692Z,33.60
2022-09-05T09:36:20.951Z,33.60
2022-09-05T09:38:41.250Z,33.50
2022-09-05T09:41:02.274Z,33.90
2022-09-05T09:43:29.337Z,34.10
2022-09-05T09:45:52.155Z,34.20
2022-09-05T09:48:17.675Z,34.20
2022-09-05T09:50:59.037Z,33.80
2022-09-05T09:53:15.218Z,33.90
2022-09-05T09:55:31.721Z,33.70
2022-09-05T09:57:51.147Z,34.00
2022-09-05T10:00:07.781Z,34.40
2022-09-05T10:06:33.839Z,34.90
2022-09-05T10:10:39.045Z,34.90
2022-09-05T10:10:53.340Z,35.00
2022-09-05T10:13:39.148Z,35.20
2022-09-05T10:16:18.842Z,35.70
2022-09-05T10:18:40.630Z,35.60
2022-09-05T10:21:16.936Z,35.00
2022-09-05T10:23:37.333Z,34.60
2022-09-05T10:26:09.353Z,34.10
2022-09-05T10:28:26.434Z,34.70
2022-09-05T10:31:55.568Z,34.60
2022-09-05T10:35:16.770Z,34.70
2022-09-05T10:36:23.985Z,34.00
2022-09-05T10:38:40.310Z,33.90
2022-09-05T10:41:11.183Z,34.40
2022-09-05T10:43:22.811Z,34.80
2022-09-05T10:45:55.698Z,35.60
2022-09-05T10:48:19.271Z,35.70
2022-09-05T10:50:27.414Z,35.50
2022-09-05T10:52:37.131Z,34.70
2022-09-05T10:54:41.674Z,34.40
2022-09-05T10:56:51.683Z,34.10
2022-09-05T11:01:40.286Z,34.20
2022-09-05T11:02:27.234Z,33.40
2022-09-05T11:04:46.652Z,33.30
2022-09-05T11:07:10.542Z,33.70
2022-09-05T11:09:35.316Z,33.80
2022-09-05T11:11:46.764Z,33.90
2022-09-05T11:13:51.174Z,34.00
2022-09-05T11:16:04.244Z,33.70
2022-09-05T11:18:19.612Z,33.80
2022-09-05T11:20:45.725Z,33.90
2022-09-05T11:22:49.139Z,34.10
2022-09-05T11:24:56.216Z,33.80
2022-09-05T11:27:23.359Z,33.90
2022-09-05T11:29:50.523Z,33.70
2022-09-05T11:36:42.957Z,33.70
2022-09-05T11:39:52.769Z,33.40
2022-09-05T11:39:58.055Z,32.60
2022-09-05T11:40:31.265Z,31.70
2022-09-05T11:42:49.156Z,31.80
2022-09-05T11:45:40.217Z,32.20
2022-09-05T11:48:15.445Z,32.50
2022-09-05T11:50:29.080Z,32.10
2022-09-05T11:52:52.856Z,31.20
2022-09-05T12:02:23.172Z,31.50
2022-09-05T12:04:28.621Z,32.00
2022-09-05T12:06:57.274Z,32.30
2022-09-05T12:09:26.035Z,32.90
2022-09-05T12:12:39.637Z,33.20
2022-09-05T12:15:04.333Z,33.40
2022-09-05T12:17:47.018Z,33.60
2022-09-05T12:36:06.179Z,33.60
2022-09-05T12:36:10.637Z,33.50
2022-09-05T12:40:45.119Z,33.60
2022-09-05T12:41:45.125Z,33.10
2022-09-05T12:44:40.014Z,31.80
2022-09-05T12:46:13.582Z,32.30
2022-09-05T12:48:39.331Z,33.40
2022-09-05T12:51:05.156Z,34.20
2022-09-05T12:53:15.877Z,34.60
2022-09-05T12:55:17.606Z,34.90
2022-09-05T13:02:13.314Z,35.20
2022-09-05T13:03:04.349Z,36.30
2022-09-05T13:03:09.166Z,36.20
2022-09-05T13:05:18.694Z,36.30
2022-09-05T13:07:32.369Z,35.50
2022-09-05T13:12:04.469Z,35.20
2022-09-05T13:14:55.455Z,34.70
2022-09-05T13:15:23.273Z,35.50
2022-09-05T13:17:45.151Z,36.40
2022-09-05T13:19:52.381Z,35.80
2022-09-05T13:21:57.330Z,35.50
2022-09-05T13:24:27.467Z,35.20
2022-09-05T13:26:41.502Z,35.60
2022-09-05T13:29:10.530Z,36.00
2022-09-05T13:36:14.191Z,35.50
2022-09-05T13:37:58.605Z,35.60
2022-09-05T13:38:02.657Z,35.70
2022-09-05T13:39:05.735Z,35.30
2022-09-05T13:41:26.996Z,34.60
2022-09-05T13:43:38.432Z,33.70
2022-09-05T13:46:04.821Z,33.40
2022-09-05T13:51:28.970Z,34.00
2022-09-05T13:53:44.111Z,34.30
2022-09-05T13:56:03.059Z,34.70
2022-09-05T13:58:42.706Z,35.00
2022-09-05T14:01:01.250Z,35.60
2022-09-05T14:03:37.984Z,35.70
2022-09-05T14:06:34.390Z,35.20
2022-09-05T14:09:35.018Z,34.80
2022-09-05T14:11:38.168Z,34.60
2022-09-05T14:14:11.324Z,34.80
2022-09-05T14:16:26.273Z,34.70
2022-09-05T14:18:57.533Z,35.00
2022-09-05T14:21:16.051Z,35.30
2022-09-05T14:23:21.124Z,35.60
2022-09-05T14:25:33.864Z,35.60
2022-09-05T14:27:38.583Z,35.80
2022-09-05T14:29:55.907Z,35.80
2022-09-05T14:37:46.276Z,35.50
2022-09-05T14:38:01.213Z,35.30
2022-09-05T14:38:05.777Z,34.70
2022-09-05T14:40:30.498Z,34.60
2022-09-05T14:43:07.364Z,34.70
2022-09-05T14:45:42.677Z,34.50
2022-09-05T14:48:43.125Z,34.30
2022-09-05T14:51:25.426Z,34.20
2022-09-05T14:56:00.091Z,34.10
2022-09-05T15:02:51.878Z,33.40
2022-09-05T15:02:55.113Z,33.70
2022-09-05T15:03:20.210Z,33.30
2022-09-05T15:05:28.182Z,32.90
2022-09-05T15:07:33.775Z,32.90
2022-09-05T15:12:18.208Z,33.20
2022-09-05T15:12:24.051Z,32.90
2022-09-05T15:14:30.920Z,32.60
2022-09-05T15:16:43.441Z,32.60
2022-09-05T15:18:50.885Z,33.00
2022-09-05T15:20:54.815Z,33.30
2022-09-05T15:22:57.572Z,33.10
2022-09-05T15:25:22.775Z,32.30
2022-09-05T15:27:28.504Z,31.90
2022-09-05T15:29:35.543Z,31.80
2022-09-05T15:31:37.833Z,31.70
2022-09-05T15:33:44.202Z,31.50
2022-09-05T15:35:45.926Z,31.50
2022-09-05T15:37:50.148Z,31.20
2022-09-05T15:40:22.415Z,31.00
2022-09-05T15:42:31.785Z,30.80
2022-09-05T15:44:43.337Z,30.60
2022-09-05T15:47:03.690Z,30.70
2022-09-05T15:49:10.769Z,30.70
2022-09-05T15:51:23.751Z,30.80
2022-09-05T15:53:29.578Z,30.70
2022-09-05T15:55:49.891Z,30.70
2022-09-05T15:58:04.906Z,30.90
2022-09-05T16:00:32.574Z,30.90
2022-09-05T16:02:39.313Z,31.00
2022-09-05T16:10:28.408Z,31.10
2022-09-05T16:10:38.517Z,31.20
2022-09-05T16:10:42.875Z,31.50
2022-09-05T16:12:13.786Z,31.60
2022-09-05T16:14:26.415Z,31.40
2022-09-05T16:23:12.789Z,30.30
2022-09-05T16:23:18.011Z,30.90
2022-09-05T16:23:28.521Z,29.70
2022-09-05T16:23:46.400Z,29.20
2022-09-05T16:26:09.492Z,28.80
2022-09-05T16:28:12.487Z,28.40
2022-09-05T16:30:29.402Z,28.20
2022-09-05T16:32:35.356Z,28.00
2022-09-05T16:34:54.680Z,27.70
2022-09-05T16:37:08.888Z,27.50
2022-09-05T16:39:15.911Z,27.40
2022-09-05T16:41:24.731Z,27.20
2022-09-05T16:43:37.619Z,27.20
2022-09-05T16:45:48.282Z,27.10
2022-09-05T16:48:31.209Z,26.90
2022-09-05T16:50:51.843Z,26.90
2022-09-05T16:53:30.263Z,26.70
2022-09-05T16:55:42.875Z,26.60
2022-09-05T16:58:14.361Z,26.50
2022-09-05T17:00:16.473Z,26.30
2022-09-05T17:02:49.770Z,26.10
2022-09-05T17:05:03.195Z,25.90
2022-09-05T17:07:06.938Z,25.70
2022-09-05T17:09:22.307Z,25.60
2022-09-05T17:11:30.091Z,25.30
2022-09-05T17:13:45.093Z,25.20
2022-09-05T17:15:52.438Z,25.30
2022-09-05T17:18:18.532Z,25.30
2022-09-05T17:20:30.535Z,25.40
2022-09-05T17:25:45.988Z,25.50
2022-09-05T17:29:32.751Z,25.60
2022-09-05T17:29:33.327Z,25.60
2022-09-05T17:32:38.280Z,25.10
2022-09-05T17:34:49.433Z,24.90
2022-09-05T17:37:17.358Z,24.80
2022-09-05T17:39:49.129Z,24.70
2022-09-05T17:42:03.302Z,24.60
2022-09-05T17:44:27.545Z,24.40
2022-09-05T17:46:34.004Z,24.30
2022-09-05T17:49:16.198Z,24.20
2022-09-05T17:51:09.336Z,24.10
2022-09-05T17:53:25.156Z,24.20
2022-09-05T17:55:38.114Z,24.20
2022-09-05T17:57:41.283Z,24.20
2022-09-05T17:59:43.312Z,24.10
2022-09-05T18:02:03.776Z,24.10
2022-09-05T18:04:16.035Z,24.00
2022-09-05T18:06:19.339Z,23.90
2022-09-05T18:11:33.468Z,23.90
2022-09-05T18:14:01.068Z,23.70
2022-09-05T18:16:02.797Z,23.50
2022-09-05T18:21:21.533Z,23.40
2022-09-05T18:23:41.098Z,23.30
2022-09-05T18:28:22.506Z,23.10
2022-09-05T18:30:27.077Z,23.00
2022-09-05T18:32:40.922Z,22.80
2022-09-05T18:34:44.543Z,22.70
2022-09-05T18:36:48.825Z,22.60
2022-09-05T18:39:29.757Z,22.50
2022-09-05T18:41:41.813Z,22.60
2022-09-05T18:44:20.369Z,22.70
2022-09-05T18:46:32.800Z,22.80
2022-09-05T18:49:15.920Z,22.80
2022-09-05T18:51:25.623Z,22.80
2022-09-05T18:53:34.687Z,22.70
2022-09-05T18:56:13.986Z,22.70
2022-09-05T18:58:07.450Z,22.70
2022-09-05T19:00:13.801Z,22.60
2022-09-05T19:02:50.566Z,22.60
2022-09-05T19:04:53.955Z,22.60
2022-09-05T19:06:58.080Z,22.60
2022-09-05T19:09:14.437Z,22.50
2022-09-05T19:11:27.843Z,22.40
2022-09-05T19:13:38.589Z,22.40
2022-09-05T19:16:43.386Z,22.40
2022-09-05T19:19:16.355Z,22.40
2022-09-05T19:21:21.323Z,22.50
2022-09-05T19:23:29.225Z,22.40
2022-09-05T19:25:59.175Z,22.40
2022-09-05T19:36:51.436Z,22.10
2022-09-05T19:36:55.955Z,22.30
2022-09-05T19:36:56.640Z,22.30
2022-09-05T19:37:06.990Z,21.90
2022-09-05T19:38:26.582Z,21.90
2022-09-05T19:43:33.122Z,21.90
2022-09-05T19:47:37.700Z,21.70
2022-09-05T19:47:45.139Z,21.80
2022-09-05T19:48:08.808Z,21.70
2022-09-05T19:50:11.524Z,21.70
2022-09-05T19:52:17.319Z,21.70
2022-09-05T19:54:31.195Z,21.70
2022-09-05T19:56:37.919Z,21.70
2022-09-05T19:58:42.363Z,21.70
2022-09-05T20:00:53.988Z,21.60
2022-09-05T20:03:02.542Z,21.60
2022-09-05T20:05:08.016Z,21.50
2022-09-05T20:07:32.698Z,21.50
2022-09-05T20:09:43.044Z,21.40
2022-09-05T20:11:59.863Z,21.30
2022-09-05T20:14:18.792Z,21.10
2022-09-05T20:16:31.263Z,21.10
2022-09-05T20:18:40.235Z,21.10
2022-09-05T20:20:54.787Z,21.20
2022-09-05T20:23:06.857Z,21.20
2022-09-05T20:25:19.950Z,21.20
2022-09-05T20:27:38.198Z,21.20
2022-09-05T20:30:04.948Z,21.10
2022-09-05T20:32:06.921Z,21.00
2022-09-05T20:35:48.908Z,20.90
2022-09-05T20:43:10.589Z,20.80
2022-09-05T20:43:20.494Z,20.80
2022-09-05T20:43:22.630Z,20.80
2022-09-05T20:44:19.243Z,20.90
2022-09-05T20:47:46.426Z,21.00
2022-09-05T20:54:07.425Z,21.10
2022-09-05T20:54:16.797Z,21.10
2022-09-05T20:54:18.232Z,21.00
2022-09-05T20:56:06.115Z,21.10
2022-09-05T20:58:35.358Z,21.00
2022-09-05T21:00:41.349Z,21.00
2022-09-05T21:03:05.367Z,21.00
2022-09-05T21:05:21.069Z,20.90
2022-09-05T21:07:27.999Z,20.80
2022-09-05T21:09:30.064Z,20.70
2022-09-05T21:11:32.940Z,20.60
2022-09-05T21:13:51.853Z,20.50
2022-09-05T21:15:55.674Z,20.50
2022-09-05T21:18:18.651Z,20.50
2022-09-05T21:20:24.579Z,20.50
2022-09-05T21:22:39.422Z,20.50
2022-09-05T21:24:47.338Z,20.50
2022-09-05T21:26:50.395Z,20.40
2022-09-05T21:29:10.976Z,20.40
2022-09-05T21:31:17.395Z,20.40
2022-09-05T21:33:45.066Z,20.40
2022-09-05T21:35:50.197Z,20.40
2022-09-05T21:37:53.533Z,20.30
2022-09-05T21:39:58.479Z,20.40
2022-09-05T21:42:21.318Z,20.40
2022-09-05T21:47:35.421Z,20.30
2022-09-05T21:47:38.333Z,20.30
2022-09-05T21:49:09.003Z,20.20
2022-09-05T21:51:14.478Z,20.20
2022-09-05T21:55:09.342Z,20.20
2022-09-05T21:59:18.250Z,20.30
2022-09-05T21:59:33.665Z,20.30
2022-09-05T22:00:53.329Z,20.40
2022-09-05T22:02:55.438Z,20.40
2022-09-05T22:05:03.120Z,20.40
2022-09-05T22:07:05.628Z,20.40
2022-09-05T22:09:12.793Z,20.30
2022-09-05T22:11:16.075Z,20.30
2022-09-05T22:13:17.851Z,20.30
2022-09-05T22:15:27.622Z,20.30
2022-09-05T22:17:32.605Z,20.30
2022-09-05T22:19:37.477Z,20.30
2022-09-05T22:21:40.637Z,20.20
2022-09-05T22:23:45.005Z,20.20
2022-09-05T22:25:46.829Z,20.10
2022-09-05T22:27:50.098Z,20.00
2022-09-05T22:29:52.378Z,20.00
2022-09-05T22:31:54.735Z,20.00
2022-09-05T22:33:58.073Z,19.90
2022-09-05T22:35:59.773Z,20.00
2022-09-05T22:38:11.659Z,20.00
2022-09-05T22:40:16.889Z,20.00
2022-09-05T22:42:18.579Z,20.00
2022-09-05T22:44:20.302Z,20.00
2022-09-05T22:46:22.975Z,20.10
2022-09-05T22:48:25.059Z,20.10
2022-09-05T22:50:27.204Z,20.10
2022-09-05T22:52:28.953Z,20.10
2022-09-05T22:54:30.706Z,20.20
2022-09-05T22:56:35.737Z,20.10
2022-09-05T22:58:42.726Z,20.00
2022-09-05T23:00:45.254Z,19.90
2022-09-05T23:02:51.650Z,19.90
2022-09-05T23:04:54.405Z,19.90
2022-09-05T23:06:56.475Z,19.90
2022-09-05T23:08:58.536Z,19.80
2022-09-05T23:11:12.111Z,19.80
2022-09-05T23:13:13.843Z,19.90
2022-09-05T23:15:16.197Z,20.00
2022-09-05T23:17:17.930Z,20.00
2022-09-05T23:19:19.627Z,20.00
2022-09-05T23:21:21.477Z,20.00
2022-09-05T23:23:23.254Z,20.00
2022-09-05T23:25:24.998Z,19.90
2022-09-05T23:27:26.869Z,19.90
2022-09-05T23:29:28.537Z,19.90
2022-09-05T23:31:30.488Z,19.80
2022-09-05T23:33:33.169Z,19.90
2022-09-05T23:35:35.993Z,19.90
2022-09-05T23:37:37.716Z,20.00
2022-09-05T23:39:39.415Z,20.10
2022-09-05T23:41:41.276Z,20.10
2022-09-05T23:43:43.057Z,20.10
2022-09-05T23:45:47.530Z,20.10
2022-09-05T23:47:49.301Z,20.10
2022-09-05T23:49:50.968Z,20.10
2022-09-05T23:51:52.741Z,20.00
2022-09-05T23:53:54.425Z,19.90
2022-09-05T23:56:00.763Z,19.90
2022-09-05T23:58:02.739Z,19.80
